createdAt,value
2023-12-01T00:00:12.195Z,19.25
2023-12-01T00:02:39.078Z,21.03
2023-12-01T00:05:06.754Z,18.92
2023-12-01T00:07:33.837Z,20.13
2023-12-01T00:10:00.746Z,20.25
2023-12-01T00:12:27.728Z,19.13
2023-12-01T00:14:54.565Z,21.10
2023-12-01T00:17:21.457Z,17.70
2023-12-01T00:19:48.367Z,18.50
2023-12-01T00:22:15.261Z,17.92
2023-12-01T00:24:42.178Z,19.30
2023-12-01T00:27:09.034Z,18.53
2023-12-01T00:29:35.929Z,18.50
2023-12-01T00:32:03.002Z,17.73
2023-12-01T00:34:29.879Z,18.80
2023-12-01T00:36:56.767Z,18.10
2023-12-01T00:39:23.610Z,19.37
2023-12-01T00:41:50.520Z,18.83
2023-12-01T00:44:18.023Z,17.95
2023-12-01T00:46:44.992Z,17.17
2023-12-01T00:49:13.214Z,16.27
2023-12-01T00:51:45.229Z,16.53
2023-12-01T00:54:12.254Z,16.90
2023-12-01T00:56:39.175Z,15.73
2023-12-01T00:59:06.037Z,15.40
2023-12-01T01:01:34.661Z,13.77
2023-12-01T01:04:01.648Z,14.60
2023-12-01T01:06:28.716Z,14.57
2023-12-01T01:08:55.575Z,13.10
2023-12-01T01:11:23.461Z,14.07
2023-12-01T01:13:50.509Z,14.68
2023-12-01T01:16:17.509Z,14.77
2023-12-01T01:18:44.478Z,14.43
2023-12-01T01:21:11.598Z,15.32
2023-12-01T01:23:38.559Z,15.57
2023-12-01T01:26:05.679Z,15.60
2023-12-01T01:28:32.576Z,15.30
2023-12-01T01:30:59.494Z,17.45
2023-12-01T01:33:26.433Z,15.27
2023-12-01T01:35:53.310Z,12.75
2023-12-01T01:38:20.897Z,12.93
2023-12-01T01:40:48.664Z,13.27
2023-12-01T01:43:26.083Z,13.80
2023-12-01T01:46:19.581Z,14.45
2023-12-01T01:48:46.509Z,14.27
2023-12-01T01:51:15.384Z,15.30
2023-12-01T01:53:42.769Z,17.87
2023-12-01T01:56:13.294Z,16.00
2023-12-01T01:58:41.044Z,19.23
2023-12-01T02:01:09.147Z,19.30
2023-12-01T02:03:39.510Z,19.20
2023-12-01T02:06:09.564Z,19.17
2023-12-01T02:08:36.870Z,19.30
2023-12-01T02:11:04.127Z,20.05
2023-12-01T02:13:31.093Z,20.65
2023-12-01T02:16:01.209Z,19.50
2023-12-01T02:18:33.094Z,21.07
2023-12-01T02:21:00.723Z,21.65
2023-12-01T02:23:28.546Z,21.10
2023-12-01T02:25:55.603Z,20.83
2023-12-01T02:28:22.524Z,22.13
2023-12-01T02:30:52.022Z,19.87
2023-12-01T02:33:19.516Z,19.48
2023-12-01T02:35:52.240Z,19.98
2023-12-01T02:38:19.944Z,20.05
2023-12-01T02:40:53.390Z,20.83
2023-12-01T02:43:22.033Z,18.87
2023-12-01T02:45:49.728Z,20.00
2023-12-01T02:48:18.049Z,15.38
2023-12-01T02:50:46.599Z,16.17
2023-12-01T02:53:13.680Z,15.25
2023-12-01T02:55:40.700Z,14.30
2023-12-01T02:58:07.771Z,15.65
2023-12-01T03:00:35.386Z,14.43
2023-12-01T03:03:02.559Z,16.75
2023-12-01T03:05:29.471Z,14.68
2023-12-01T03:07:56.428Z,14.47
2023-12-01T03:10:24.972Z,14.30
2023-12-01T03:12:52.101Z,15.07
2023-12-01T03:15:20.664Z,14.82
2023-12-01T03:17:49.265Z,14.05
2023-12-01T03:20:17.542Z,12.57
2023-12-01T03:22:47.268Z,14.90
2023-12-01T03:25:15.057Z,14.48
2023-12-01T03:27:46.859Z,13.80
2023-12-01T03:30:19.073Z,14.57
2023-12-01T03:32:50.822Z,14.70
2023-12-01T03:35:19.429Z,15.13
2023-12-01T03:37:46.521Z,11.82
2023-12-01T03:40:14.538Z,16.38
2023-12-01T03:42:46.700Z,15.05
2023-12-01T03:45:14.556Z,15.70
2023-12-01T03:47:43.787Z,17.23
2023-12-01T03:50:14.125Z,15.98
2023-12-01T03:52:46.256Z,17.55
2023-12-01T03:55:14.366Z,17.55
2023-12-01T03:57:42.802Z,19.53
2023-12-01T04:00:15.334Z,19.20
2023-12-01T04:02:47.490Z,19.52
2023-12-01T04:05:21.582Z,20.13
2023-12-01T04:07:56.149Z,20.33
2023-12-01T04:10:28.894Z,20.40
2023-12-01T04:12:57.768Z,22.10
2023-12-01T04:15:28.532Z,21.63
2023-12-01T04:17:55.900Z,20.92
2023-12-01T04:20:23.666Z,22.00
2023-12-01T04:22:51.997Z,23.27
2023-12-01T04:25:19.805Z,23.33
2023-12-01T04:27:48.340Z,22.00
2023-12-01T04:30:17.314Z,23.58
2023-12-01T04:32:49.629Z,23.02
2023-12-01T04:35:16.760Z,22.87
2023-12-01T04:37:44.183Z,23.85
2023-12-01T04:40:16.111Z,23.05
2023-12-01T04:42:50.618Z,22.58
2023-12-01T04:45:19.311Z,22.45
2023-12-01T04:47:51.654Z,23.50
2023-12-01T04:50:20.826Z,22.70
2023-12-01T04:52:49.441Z,23.88
2023-12-01T04:55:21.270Z,21.50
2023-12-01T04:57:49.298Z,23.33
2023-12-01T05:00:21.277Z,25.73
2023-12-01T05:02:53.187Z,24.45
2023-12-01T05:05:21.813Z,23.23
2023-12-01T05:07:53.506Z,23.60
2023-12-01T05:10:22.592Z,25.02
2023-12-01T05:12:51.805Z,23.03
2023-12-01T05:15:23.265Z,23.88
2023-12-01T05:17:55.307Z,24.92
2023-12-01T05:20:24.390Z,23.95
2023-12-01T05:22:56.361Z,24.95
2023-12-01T05:25:26.852Z,24.47
2023-12-01T05:27:55.259Z,24.98
2023-12-01T05:30:27.102Z,24.10
2023-12-01T05:32:55.981Z,25.17
2023-12-01T05:35:23.906Z,24.70
2023-12-01T05:37:55.146Z,25.80
2023-12-01T05:40:30.093Z,23.65
2023-12-01T05:42:58.784Z,24.00
2023-12-01T05:45:27.839Z,26.33
2023-12-01T05:47:56.502Z,24.92
2023-12-01T05:50:30.696Z,26.27
2023-12-01T05:53:00.923Z,24.20
2023-12-01T05:55:30.298Z,26.75
2023-12-01T05:58:05.645Z,23.25
2023-12-01T06:00:33.551Z,23.60
2023-12-01T06:03:07.469Z,25.03
2023-12-01T06:05:36.316Z,23.17
2023-12-01T06:08:04.865Z,26.45
2023-12-01T06:10:33.949Z,23.33
2023-12-01T06:13:01.699Z,25.30
2023-12-01T06:15:32.054Z,24.83
2023-12-01T06:18:00.365Z,23.08
2023-12-01T06:20:28.001Z,23.70
2023-12-01T06:22:59.662Z,22.88
2023-12-01T06:25:28.879Z,24.83
2023-12-01T06:28:00.844Z,23.30
2023-12-01T06:30:29.467Z,22.65
2023-12-01T06:32:57.219Z,22.98
2023-12-01T06:35:24.609Z,23.65
2023-12-01T06:37:51.543Z,23.98
2023-12-01T06:40:20.208Z,24.13
2023-12-01T06:42:52.376Z,23.38
2023-12-01T06:45:26.972Z,23.95
2023-12-01T06:47:56.642Z,22.77
2023-12-01T06:50:23.544Z,21.63
2023-12-01T06:52:52.976Z,22.30
2023-12-01T06:55:20.432Z,22.95
2023-12-01T06:57:50.658Z,21.55
2023-12-01T07:00:32.538Z,23.25
2023-12-01T07:03:09.275Z,21.73
2023-12-01T07:05:39.127Z,23.43
2023-12-01T07:08:12.959Z,19.90
2023-12-01T07:10:40.483Z,21.20
2023-12-01T07:13:07.442Z,20.13
2023-12-01T07:15:34.721Z,20.10
2023-12-01T07:18:02.403Z,21.57
2023-12-01T07:20:29.481Z,19.27
2023-12-01T07:22:56.387Z,21.13
2023-12-01T07:25:24.538Z,21.23
2023-12-01T07:27:53.121Z,22.75
2023-12-01T07:30:20.237Z,20.90
2023-12-01T07:32:48.342Z,21.05
2023-12-01T07:35:16.011Z,19.45
2023-12-01T07:37:43.963Z,20.67
2023-12-01T07:40:20.698Z,20.13
2023-12-01T07:42:48.733Z,19.13
2023-12-01T07:45:18.746Z,19.23
2023-12-01T07:47:47.053Z,19.60
2023-12-01T07:50:16.727Z,18.25
2023-12-01T07:52:48.199Z,18.90
2023-12-01T07:55:15.192Z,20.17
2023-12-01T07:57:42.941Z,19.45
2023-12-01T08:00:17.997Z,19.90
2023-12-01T08:02:47.083Z,18.58
2023-12-01T08:05:18.540Z,18.45
2023-12-01T08:07:55.304Z,16.27
2023-12-01T08:10:25.084Z,16.50
2023-12-01T08:12:57.867Z,16.67
2023-12-01T08:15:27.825Z,16.60
2023-12-01T08:17:55.383Z,15.02
2023-12-01T08:20:22.355Z,17.77
2023-12-01T08:22:49.295Z,14.90
2023-12-01T08:25:18.154Z,14.85
2023-12-01T08:27:45.034Z,17.13
2023-12-01T08:30:18.645Z,14.07
2023-12-01T08:32:50.477Z,14.53
2023-12-01T08:35:18.029Z,13.98
2023-12-01T08:37:45.348Z,15.43
2023-12-01T08:40:14.346Z,14.20
2023-12-01T08:42:43.474Z,15.38
2023-12-01T08:45:11.780Z,16.20
2023-12-01T08:47:39.665Z,14.65
2023-12-01T08:50:09.489Z,17.17
2023-12-01T08:52:38.321Z,13.88
2023-12-01T08:55:07.291Z,15.82
2023-12-01T08:57:35.138Z,16.40
2023-12-01T09:00:02.277Z,15.48
2023-12-01T09:02:29.237Z,15.32
2023-12-01T09:04:56.222Z,14.93
2023-12-01T09:07:28.968Z,15.27
2023-12-01T09:09:56.885Z,14.57
2023-12-01T09:12:24.036Z,13.38
2023-12-01T09:14:51.277Z,14.55
2023-12-01T09:17:18.206Z,14.52
2023-12-01T09:19:45.090Z,14.30
2023-12-01T09:22:12.043Z,14.47
2023-12-01T09:24:39.153Z,14.15
2023-12-01T09:27:06.468Z,14.60
2023-12-01T09:29:33.580Z,14.48
2023-12-01T09:32:00.527Z,13.80
2023-12-01T09:34:27.527Z,14.77
2023-12-01T09:36:54.357Z,14.65
2023-12-01T09:39:21.493Z,13.23
2023-12-01T09:41:49.817Z,14.00
2023-12-01T09:44:17.645Z,14.95
2023-12-01T09:46:44.798Z,13.80
2023-12-01T09:49:12.054Z,14.95
2023-12-01T09:51:39.031Z,14.48
2023-12-01T09:54:06.441Z,14.45
2023-12-01T09:56:33.550Z,13.52
2023-12-01T09:59:00.908Z,12.97
2023-12-01T10:01:29.004Z,13.10
2023-12-01T10:03:56.423Z,14.45
2023-12-01T10:06:23.641Z,12.77
2023-12-01T10:08:50.992Z,12.73
2023-12-01T10:11:25.920Z,13.50
2023-12-01T10:13:53.568Z,13.88
2023-12-01T10:16:22.420Z,13.40
2023-12-01T10:19:05.752Z,13.63
2023-12-01T10:21:46.866Z,13.25
2023-12-01T10:24:23.786Z,13.33
2023-12-01T10:26:55.244Z,13.40
2023-12-01T10:29:31.798Z,13.55
2023-12-01T10:32:14.983Z,13.35
2023-12-01T10:34:53.392Z,12.93
2023-12-01T10:37:21.626Z,14.00
2023-12-01T10:39:51.909Z,13.52
2023-12-01T10:42:19.878Z,13.30
2023-12-01T10:44:49.554Z,13.25
2023-12-01T10:47:17.881Z,14.02
2023-12-01T10:49:45.502Z,13.90
2023-12-01T10:52:13.685Z,12.32
2023-12-01T10:54:44.616Z,13.30
2023-12-01T10:57:36.681Z,12.95
2023-12-01T11:00:10.706Z,13.43
2023-12-01T11:02:41.360Z,12.60
2023-12-01T11:05:09.518Z,13.60
2023-12-01T11:07:55.034Z,13.15
2023-12-01T11:10:31.380Z,12.35
2023-12-01T11:13:07.571Z,12.90
2023-12-01T11:15:37.088Z,12.80
2023-12-01T11:18:08.244Z,12.95
2023-12-01T11:20:44.440Z,12.48
2023-12-01T11:23:18.277Z,13.05
2023-12-01T11:25:51.805Z,12.23
2023-12-01T11:28:37.391Z,11.67
2023-12-01T11:31:23.506Z,13.13
2023-12-01T11:33:57.029Z,12.32
2023-12-01T11:36:27.321Z,12.50
2023-12-01T11:39:18.057Z,12.30
2023-12-01T11:41:45.983Z,13.10
2023-12-01T11:44:19.793Z,12.27
2023-12-01T11:46:48.901Z,12.27
2023-12-01T11:49:16.267Z,12.68
2023-12-01T11:51:46.521Z,11.57
2023-12-01T11:54:14.153Z,11.97
2023-12-01T11:56:41.067Z,11.95
2023-12-01T11:59:09.511Z,10.50
2023-12-01T12:01:38.625Z,10.95
2023-12-01T12:04:06.584Z,11.85
2023-12-01T12:06:34.056Z,11.20
2023-12-01T12:09:02.796Z,10.43
2023-12-01T12:11:30.620Z,10.75
2023-12-01T12:14:02.974Z,10.50
2023-12-01T12:16:30.201Z,10.98
2023-12-01T12:19:01.642Z,10.93
2023-12-01T12:21:29.201Z,11.60
2023-12-01T12:23:57.258Z,10.85
2023-12-01T12:26:26.234Z,10.48
2023-12-01T12:28:59.526Z,10.52
2023-12-01T12:31:37.799Z,10.67
2023-12-01T12:34:09.846Z,11.15
2023-12-01T12:36:39.487Z,9.88
2023-12-01T12:39:09.084Z,11.90
2023-12-01T12:41:38.832Z,11.32
2023-12-01T12:44:08.183Z,11.03
2023-12-01T12:46:36.661Z,11.20
2023-12-01T12:49:07.512Z,10.38
2023-12-01T12:51:35.145Z,11.02
2023-12-01T12:54:02.580Z,10.10
2023-12-01T12:56:29.704Z,10.77
2023-12-01T12:59:00.380Z,9.57
2023-12-01T13:01:28.207Z,10.50
2023-12-01T13:03:56.793Z,11.18
2023-12-01T13:06:24.307Z,11.02
2023-12-01T13:08:52.006Z,10.33
2023-12-01T13:11:19.589Z,11.52
2023-12-01T13:13:47.080Z,10.98
2023-12-01T13:16:14.532Z,9.85
2023-12-01T13:18:41.820Z,10.98
2023-12-01T13:21:10.355Z,10.53
2023-12-01T13:23:39.687Z,10.45
2023-12-01T13:26:07.535Z,9.82
2023-12-01T13:28:34.561Z,10.50
2023-12-01T13:31:01.907Z,10.48
2023-12-01T13:33:28.865Z,9.73
2023-12-01T13:35:55.894Z,10.45
2023-12-01T13:38:22.895Z,10.68
2023-12-01T13:40:50.650Z,11.18
2023-12-01T13:43:18.719Z,12.40
2023-12-01T13:45:45.956Z,10.60
2023-12-01T13:48:13.561Z,11.20
2023-12-01T13:50:41.282Z,9.77
2023-12-01T13:53:08.230Z,11.65
2023-12-01T13:55:35.265Z,11.45
2023-12-01T13:58:02.576Z,10.63
2023-12-01T14:00:29.698Z,9.95
2023-12-01T14:02:57.147Z,10.45
2023-12-01T14:05:24.208Z,11.20
2023-12-01T14:07:51.310Z,10.73
2023-12-01T14:10:19.435Z,10.20
2023-12-01T14:12:46.911Z,11.43
2023-12-01T14:15:13.992Z,9.40
2023-12-01T14:17:41.228Z,10.55
2023-12-01T14:20:08.640Z,9.93
2023-12-01T14:22:35.628Z,10.27
2023-12-01T14:25:03.574Z,10.15
2023-12-01T14:27:30.466Z,10.07
2023-12-01T14:29:57.604Z,10.50
2023-12-01T14:32:24.776Z,10.65
2023-12-01T14:34:52.269Z,10.63
2023-12-01T14:37:20.122Z,10.75
2023-12-01T14:39:47.177Z,10.63
2023-12-01T14:42:14.555Z,13.68
2023-12-01T14:44:42.626Z,12.18
2023-12-01T14:47:10.039Z,14.13
2023-12-01T14:49:38.129Z,12.43
2023-12-01T14:52:05.204Z,12.23
2023-12-01T14:54:32.194Z,13.77
2023-12-01T14:56:59.111Z,11.27
2023-12-01T14:59:27.720Z,10.07
2023-12-01T15:01:54.945Z,10.38
2023-12-01T15:04:31.422Z,11.63
2023-12-01T15:07:18.648Z,11.13
2023-12-01T15:09:45.535Z,10.35
2023-12-01T15:12:12.412Z,11.60
2023-12-01T15:14:39.417Z,10.93
2023-12-01T15:17:09.022Z,9.95
2023-12-01T15:19:36.333Z,10.55
2023-12-01T15:22:03.158Z,13.98
2023-12-01T15:24:30.222Z,10.73
2023-12-01T15:26:57.345Z,10.60
2023-12-01T15:29:25.121Z,11.00
2023-12-01T15:31:52.312Z,10.80
2023-12-01T15:34:19.372Z,10.52
2023-12-01T15:36:47.716Z,11.63
2023-12-01T15:39:14.995Z,10.48
2023-12-01T15:41:42.194Z,10.85
2023-12-01T15:44:09.058Z,10.43
2023-12-01T15:46:36.148Z,11.15
2023-12-01T15:49:03.154Z,8.93
2023-12-01T15:51:30.748Z,10.20
2023-12-01T15:53:57.659Z,10.05
2023-12-01T15:56:24.665Z,9.90
2023-12-01T15:58:52.140Z,10.75
2023-12-01T16:01:19.227Z,10.40
2023-12-01T16:03:46.287Z,9.63
2023-12-01T16:06:13.277Z,10.20
2023-12-01T16:08:40.245Z,10.48
2023-12-01T16:11:07.921Z,10.05
2023-12-01T16:13:35.108Z,10.90
2023-12-01T16:16:01.986Z,10.02
2023-12-01T16:18:29.188Z,9.00
2023-12-01T16:20:56.315Z,10.77
2023-12-01T16:23:23.394Z,11.30
2023-12-01T16:25:50.737Z,10.00
2023-12-01T16:28:17.867Z,9.65
2023-12-01T16:30:46.464Z,10.38
2023-12-01T16:33:14.322Z,10.85
2023-12-01T16:35:51.659Z,11.05
2023-12-01T16:38:18.563Z,9.63
2023-12-01T16:40:45.420Z,10.13
2023-12-01T16:43:12.683Z,11.10
2023-12-01T16:45:41.181Z,10.50
2023-12-01T16:48:08.555Z,11.43
2023-12-01T16:50:37.616Z,9.83
2023-12-01T16:53:04.949Z,10.90
2023-12-01T16:55:31.770Z,10.52
2023-12-01T16:57:58.958Z,11.52
2023-12-01T17:00:26.582Z,10.80
2023-12-01T17:02:53.659Z,10.90
2023-12-01T17:05:20.932Z,11.07
2023-12-01T17:07:47.838Z,11.35
2023-12-01T17:10:14.823Z,11.38
2023-12-01T17:12:41.787Z,9.95
2023-12-01T17:15:09.095Z,10.20
2023-12-01T17:17:36.029Z,10.88
2023-12-01T17:20:05.582Z,10.00
2023-12-01T17:22:32.853Z,11.82
2023-12-01T17:24:59.785Z,11.02
2023-12-01T17:27:27.297Z,10.43
2023-12-01T17:29:54.375Z,11.40
2023-12-01T17:32:21.271Z,11.25
2023-12-01T17:34:50.392Z,10.75
2023-12-01T17:37:17.921Z,12.55
2023-12-01T17:39:44.841Z,11.30
2023-12-01T17:42:11.703Z,11.45
2023-12-01T17:44:39.076Z,15.10
2023-12-01T17:47:07.940Z,13.07
2023-12-01T17:49:34.774Z,13.77
2023-12-01T17:52:01.616Z,28.17
2023-12-01T17:54:28.505Z,20.13
2023-12-01T17:56:55.525Z,22.10
2023-12-01T17:59:22.581Z,17.83
2023-12-01T18:01:49.645Z,16.77
2023-12-01T18:04:17.104Z,18.17
2023-12-01T18:06:44.185Z,14.75
2023-12-01T18:09:11.192Z,17.75
2023-12-01T18:11:42.183Z,19.35
2023-12-01T18:14:14.197Z,16.42
2023-12-01T18:16:41.290Z,22.27
2023-12-01T18:19:08.610Z,15.35
2023-12-01T18:21:35.678Z,18.23
2023-12-01T18:24:03.765Z,17.85
2023-12-01T18:26:30.738Z,17.40
2023-12-01T18:28:57.698Z,17.20
2023-12-01T18:31:24.760Z,18.90
2023-12-01T18:33:53.678Z,27.70
2023-12-01T18:36:20.742Z,16.83
2023-12-01T18:38:48.180Z,17.50
2023-12-01T18:41:15.338Z,14.60
2023-12-01T18:43:42.524Z,15.25
2023-12-01T18:46:09.874Z,15.73
2023-12-01T18:48:37.083Z,15.13
2023-12-01T18:51:08.231Z,17.80
2023-12-01T18:53:35.485Z,13.57
2023-12-01T18:56:02.817Z,16.42
2023-12-01T18:58:29.790Z,14.98
2023-12-01T19:00:57.524Z,15.25
2023-12-01T19:03:24.579Z,14.77
2023-12-01T19:05:51.700Z,14.40
2023-12-01T19:08:18.675Z,18.13
2023-12-01T19:10:45.764Z,14.45
2023-12-01T19:13:13.519Z,21.00
2023-12-01T19:15:40.536Z,15.55
2023-12-01T19:18:09.562Z,14.83
2023-12-01T19:20:36.856Z,14.82
2023-12-01T19:23:03.877Z,16.77
2023-12-01T19:25:30.962Z,15.50
2023-12-01T19:27:58.058Z,15.30
2023-12-01T19:30:25.107Z,16.23
2023-12-01T19:32:52.411Z,14.85
2023-12-01T19:35:19.527Z,18.02
2023-12-01T19:37:46.464Z,16.52
2023-12-01T19:40:13.632Z,15.88
2023-12-01T19:42:41.401Z,16.83
2023-12-01T19:45:09.388Z,21.63
2023-12-01T19:47:36.628Z,17.83
2023-12-01T19:50:04.179Z,22.92
2023-12-01T19:52:31.279Z,18.02
2023-12-01T19:54:58.402Z,21.93
2023-12-01T19:57:25.498Z,17.42
2023-12-01T19:59:52.539Z,17.27
2023-12-01T20:02:19.833Z,17.60
2023-12-01T20:04:46.927Z,17.90
2023-12-01T20:07:14.008Z,21.33
2023-12-01T20:09:40.930Z,20.85
2023-12-01T20:12:08.086Z,20.05
2023-12-01T20:14:35.264Z,16.70
2023-12-01T20:17:02.112Z,16.80
2023-12-01T20:19:29.137Z,16.17
2023-12-01T20:21:56.168Z,17.42
2023-12-01T20:24:23.806Z,18.15
2023-12-01T20:26:50.666Z,16.17
2023-12-01T20:29:17.991Z,17.25
2023-12-01T20:31:45.681Z,17.47
2023-12-01T20:34:12.880Z,16.42
2023-12-01T20:36:39.881Z,16.67
2023-12-01T20:39:07.841Z,16.75
2023-12-01T20:41:34.889Z,16.65
2023-12-01T20:44:01.835Z,15.77
2023-12-01T20:46:28.703Z,15.35
2023-12-01T20:48:55.776Z,17.02
2023-12-01T20:51:22.811Z,16.05
2023-12-01T20:53:54.903Z,15.80
2023-12-01T20:56:21.791Z,16.47
2023-12-01T20:58:48.684Z,17.30
2023-12-01T21:01:15.592Z,16.38
2023-12-01T21:03:42.448Z,15.73
2023-12-01T21:06:09.664Z,15.63
2023-12-01T21:08:36.618Z,15.17
2023-12-01T21:11:03.511Z,16.38
2023-12-01T21:13:30.351Z,16.92
2023-12-01T21:15:57.175Z,16.27
2023-12-01T21:18:26.812Z,16.00
2023-12-01T21:20:53.859Z,18.97
2023-12-01T21:23:20.869Z,18.88
2023-12-01T21:25:47.761Z,17.83
2023-12-01T21:28:14.686Z,16.38
2023-12-01T21:30:41.540Z,16.27
2023-12-01T21:33:08.934Z,17.77
2023-12-01T21:35:36.149Z,18.00
2023-12-01T21:38:03.017Z,17.38
2023-12-01T21:40:30.715Z,17.48
2023-12-01T21:42:58.067Z,15.98
2023-12-01T21:45:25.854Z,15.37
2023-12-01T21:47:52.799Z,16.17
2023-12-01T21:50:20.003Z,18.05
2023-12-01T21:52:47.038Z,18.13
2023-12-01T21:55:15.306Z,16.33
2023-12-01T21:57:42.143Z,18.13
2023-12-01T22:00:09.792Z,17.50
2023-12-01T22:02:36.698Z,16.42
2023-12-01T22:05:04.148Z,16.48
2023-12-01T22:07:31.139Z,16.67
2023-12-01T22:09:57.965Z,15.30
2023-12-01T22:12:24.900Z,16.27
2023-12-01T22:14:51.842Z,15.43
2023-12-01T22:17:18.750Z,17.27
2023-12-01T22:19:46.213Z,16.45
2023-12-01T22:22:19.105Z,15.97
2023-12-01T22:24:48.815Z,15.93
2023-12-01T22:27:15.954Z,16.83
2023-12-01T22:29:42.931Z,16.35
2023-12-01T22:32:10.034Z,16.77
2023-12-01T22:34:37.066Z,17.23
2023-12-01T22:37:04.025Z,16.52
2023-12-01T22:39:31.040Z,18.10
2023-12-01T22:41:58.031Z,17.27
2023-12-01T22:44:26.623Z,16.50
2023-12-01T22:46:56.209Z,18.37
2023-12-01T22:49:23.206Z,18.40
2023-12-01T22:51:50.140Z,17.55
2023-12-01T22:54:17.229Z,17.08
2023-12-01T22:56:44.141Z,17.02
2023-12-01T22:59:11.436Z,16.47
2023-12-01T23:01:38.406Z,16.52
2023-12-01T23:04:05.703Z,17.42
2023-12-01T23:06:32.811Z,16.85
2023-12-01T23:08:59.788Z,16.95
2023-12-01T23:11:26.704Z,17.27
2023-12-01T23:13:53.553Z,16.80
2023-12-01T23:16:20.415Z,15.82
2023-12-01T23:18:47.517Z,17.17
2023-12-01T23:21:14.691Z,17.63
2023-12-01T23:23:42.007Z,16.10
2023-12-01T23:26:09.291Z,16.40
2023-12-01T23:28:36.142Z,14.75
2023-12-01T23:31:02.949Z,16.77
2023-12-01T23:33:29.892Z,15.45
2023-12-01T23:35:56.809Z,17.50
2023-12-01T23:38:23.664Z,16.63
2023-12-01T23:40:51.096Z,16.23
2023-12-01T23:43:17.930Z,17.35
2023-12-01T23:45:44.868Z,17.20
2023-12-01T23:48:11.970Z,16.07
2023-12-01T23:50:39.394Z,17.00
2023-12-01T23:53:06.453Z,16.38
2023-12-01T23:55:33.441Z,15.85
2023-12-01T23:58:00.464Z,15.40
